Delta Virtual Airport Information Service

Cancun International Airport

ICAO: MMUN Country: Mexico
Latitude: 21.0365 Longitude: -86.877
Latest Arrival : JBU1913 (KMCO-MMUN) Latest Departure : AAL1157 (3A) (MMUN-KMIA)


WX CaptureLIVE
Data provided by noaa.gov | Fetched at 03:07:16

METAR : MMUN 300645Z 14005KT 7SM SCT015 26/23 A2996 RMK 8/500

TAF : MMUN 300645Z 14005KT 7SM SCT015 26/23 A2996 RMK 8/500


Runway Data for MMUN
Data provided by openaviationdata.com

Runway ID Mag Var Hdg Length Elevation Surface ILS Freq ILS Id ILS Slope
12 2 121° 11497 ft 20 ft Asphalt 108.55 IABA 3
30 2 301° 11497 ft 20 ft Asphalt -- -- --

Cancun International Airport, Mexico
Use only for reference purposes



Not for navigational purposes.